createdAt,value
2017-10-09T00:00:03.008Z,0
2017-10-09T00:05:03.318Z,0
2017-10-09T00:10:02.917Z,0
2017-10-09T00:15:03.582Z,0
2017-10-09T00:20:02.984Z,0
2017-10-09T00:25:03.651Z,0
2017-10-09T00:30:03.415Z,0
2017-10-09T00:35:02.988Z,0
2017-10-09T00:40:02.742Z,0
2017-10-09T00:45:03.465Z,0
2017-10-09T00:50:02.815Z,0
2017-10-09T00:55:03.446Z,0
2017-10-09T01:00:02.933Z,0
2017-10-09T01:05:03.602Z,0
2017-10-09T01:10:02.988Z,0
2017-10-09T01:15:02.644Z,0
2017-10-09T01:20:03.187Z,0
2017-10-09T01:25:04.199Z,0
2017-10-09T01:30:03.662Z,0
2017-10-09T01:35:03.488Z,0
2017-10-09T01:40:03.227Z,0
2017-10-09T01:45:02.739Z,0
2017-10-09T01:50:03.556Z,0
2017-10-09T01:55:02.960Z,0
2017-10-09T02:00:02.639Z,0
2017-10-09T02:05:03.391Z,0
2017-10-09T02:10:02.850Z,0
2017-10-09T02:15:03.418Z,0
2017-10-09T02:20:02.886Z,0
2017-10-09T02:25:03.405Z,0
2017-10-09T02:30:02.941Z,0
2017-10-09T02:35:02.611Z,0
2017-10-09T02:40:03.361Z,0
2017-10-09T02:45:03.046Z,0
2017-10-09T02:50:02.774Z,0
2017-10-09T02:55:03.500Z,0
2017-10-09T03:00:02.901Z,0
2017-10-09T03:05:03.546Z,0
2017-10-09T03:10:02.906Z,0
2017-10-09T03:15:03.358Z,0
2017-10-09T03:20:02.921Z,0
2017-10-09T03:25:03.531Z,0
2017-10-09T03:30:02.961Z,0
2017-10-09T03:35:02.652Z,0
2017-10-09T03:40:03.387Z,0
2017-10-09T03:45:02.790Z,0
2017-10-09T03:50:03.450Z,0
2017-10-09T03:55:02.751Z,0
2017-10-09T04:00:03.409Z,0
2017-10-09T04:05:02.797Z,0
2017-10-09T04:10:03.682Z,0
2017-10-09T04:15:02.988Z,0
2017-10-09T04:20:02.642Z,0
2017-10-09T04:25:03.655Z,0
2017-10-09T04:30:03.560Z,0
2017-10-09T04:35:03.227Z,0
2017-10-09T04:40:02.749Z,0
2017-10-09T04:45:03.608Z,0
2017-10-09T04:50:03.167Z,0
2017-10-09T04:55:02.791Z,0
2017-10-09T05:00:03.426Z,0
2017-10-09T05:05:02.782Z,0
2017-10-09T05:10:03.394Z,0
2017-10-09T05:15:03.236Z,0
2017-10-09T05:20:02.792Z,1
2017-10-09T05:25:03.469Z,0
2017-10-09T05:30:02.870Z,0
2017-10-09T05:35:03.578Z,0
2017-10-09T05:40:03.242Z,0
2017-10-09T05:45:02.616Z,0
2017-10-09T05:50:03.341Z,1
2017-10-09T05:55:03.025Z,2
2017-10-09T06:00:03.674Z,2
2017-10-09T06:05:03.436Z,0
2017-10-09T06:10:02.872Z,2
2017-10-09T06:15:03.868Z,2
2017-10-09T06:20:03.488Z,0
2017-10-09T06:25:02.985Z,0
2017-10-09T06:30:03.736Z,0
2017-10-09T06:35:03.286Z,1
2017-10-09T06:40:02.882Z,0
2017-10-09T06:45:03.562Z,3
2017-10-09T06:50:03.278Z,2
2017-10-09T06:55:02.773Z,0
2017-10-09T07:00:03.248Z,1
2017-10-09T07:05:02.642Z,3
2017-10-09T07:10:03.156Z,2
2017-10-09T07:15:03.662Z,3
2017-10-09T07:20:03.137Z,0
2017-10-09T07:25:03.026Z,0
2017-10-09T07:30:02.790Z,0
2017-10-09T07:35:03.374Z,0
2017-10-09T07:40:03.011Z,0
2017-10-09T07:45:02.629Z,0
2017-10-09T07:50:03.265Z,0
2017-10-09T07:55:02.799Z,0
2017-10-09T08:00:03.273Z,0
2017-10-09T08:05:02.609Z,0
2017-10-09T08:10:03.304Z,0
2017-10-09T08:15:02.778Z,0
2017-10-09T08:20:03.530Z,0
2017-10-09T08:25:03.014Z,1
2017-10-09T08:30:02.682Z,2
2017-10-09T08:35:03.355Z,2
2017-10-09T08:40:02.942Z,3
2017-10-09T08:45:03.491Z,3
2017-10-09T08:50:02.918Z,3
2017-10-09T08:55:03.616Z,2
2017-10-09T09:00:02.941Z,4
2017-10-09T09:05:03.696Z,3
2017-10-09T09:10:03.319Z,3
2017-10-09T09:15:02.840Z,3
2017-10-09T09:20:03.526Z,2
2017-10-09T09:25:02.890Z,3
2017-10-09T09:30:03.596Z,3
2017-10-09T09:35:02.986Z,2
2017-10-09T09:40:02.608Z,3
2017-10-09T09:45:03.461Z,4
2017-10-09T09:50:02.847Z,3
2017-10-09T09:55:03.438Z,3
2017-10-09T10:00:02.999Z,4
2017-10-09T10:05:02.726Z,5
2017-10-09T10:10:03.328Z,5
2017-10-09T10:15:03.049Z,5
2017-10-09T10:20:02.784Z,4
2017-10-09T10:25:03.507Z,3
2017-10-09T10:30:03.016Z,4
2017-10-09T10:35:02.718Z,4
2017-10-09T10:40:03.479Z,3
2017-10-09T10:45:02.936Z,4
2017-10-09T10:50:02.664Z,3
2017-10-09T10:55:03.277Z,3
2017-10-09T11:00:02.690Z,5
2017-10-09T11:05:03.404Z,3
2017-10-09T11:10:02.815Z,3
2017-10-09T11:15:03.427Z,5
2017-10-09T11:20:02.894Z,4
2017-10-09T11:25:03.601Z,4
2017-10-09T11:30:02.997Z,3
2017-10-09T11:35:02.666Z,3
2017-10-09T11:40:04.813Z,4
2017-10-09T11:45:03.304Z,7
2017-10-09T11:50:02.862Z,3
2017-10-09T11:55:03.442Z,3
2017-10-09T12:00:03.260Z,3
2017-10-09T12:05:02.634Z,3
2017-10-09T12:10:03.291Z,3
2017-10-09T12:15:02.874Z,4
2017-10-09T12:20:03.647Z,2
2017-10-09T12:25:03.359Z,3
2017-10-09T12:30:03.038Z,5
2017-10-09T12:35:02.747Z,3
2017-10-09T12:40:03.575Z,2
2017-10-09T12:45:03.396Z,2
2017-10-09T12:50:02.836Z,2
2017-10-09T12:55:03.311Z,4
2017-10-09T13:00:02.925Z,4
2017-10-09T13:05:03.474Z,2
2017-10-09T13:10:03.300Z,2
2017-10-09T13:15:02.934Z,2
2017-10-09T13:20:02.585Z,1
2017-10-09T13:25:03.316Z,2
2017-10-09T13:30:03.039Z,0
2017-10-09T13:35:02.808Z,1
2017-10-09T13:40:03.552Z,3
2017-10-09T13:45:03.235Z,2
2017-10-09T13:50:02.792Z,2
2017-10-09T13:55:03.505Z,3
2017-10-09T14:00:02.828Z,1
2017-10-09T14:05:04.684Z,2
2017-10-09T14:10:03.317Z,5
2017-10-09T14:15:02.628Z,5
2017-10-09T14:20:03.345Z,3
2017-10-09T14:25:02.926Z,4
2017-10-09T14:30:02.744Z,4
2017-10-09T14:40:03.295Z,4
2017-10-09T14:45:02.796Z,6
2017-10-09T14:50:03.528Z,4
2017-10-09T14:55:03.430Z,2
2017-10-09T15:00:03.263Z,3
2017-10-09T15:05:02.854Z,4
2017-10-09T15:10:03.594Z,7
2017-10-09T15:15:03.014Z,5
2017-10-09T15:20:02.728Z,0
2017-10-09T15:25:03.503Z,2
2017-10-09T15:30:03.344Z,1
2017-10-09T15:35:02.913Z,2
2017-10-09T15:40:02.788Z,4
2017-10-09T15:45:03.393Z,2
2017-10-09T15:50:02.892Z,3
2017-10-09T15:55:03.582Z,3
2017-10-09T16:00:03.009Z,3
2017-10-09T16:05:02.592Z,3
2017-10-09T16:10:04.799Z,5
2017-10-09T16:15:03.447Z,5
2017-10-09T16:20:03.011Z,6
2017-10-09T16:25:02.752Z,5
2017-10-09T16:30:03.456Z,3
2017-10-09T16:35:03.203Z,6
2017-10-09T16:40:03.012Z,5
2017-10-09T16:45:03.684Z,6
2017-10-09T16:50:03.383Z,4
2017-10-09T16:55:03.092Z,7
2017-10-09T17:00:05.013Z,2
2017-10-09T17:05:03.603Z,3
2017-10-09T17:10:03.433Z,3
2017-10-09T17:15:02.971Z,4
2017-10-09T17:20:02.908Z,6
2017-10-09T17:25:03.524Z,4
2017-10-09T17:30:02.975Z,4
2017-10-09T17:35:02.764Z,7
2017-10-09T17:40:03.558Z,7
2017-10-09T17:45:03.255Z,3
2017-10-09T17:50:02.823Z,1
2017-10-09T17:55:03.396Z,2
2017-10-09T18:00:02.861Z,2
2017-10-09T18:05:03.517Z,3
2017-10-09T18:10:03.046Z,2
2017-10-09T18:15:02.864Z,3
2017-10-09T18:20:03.465Z,2
2017-10-09T18:25:03.063Z,2
2017-10-09T18:30:02.609Z,3
2017-10-09T18:35:03.374Z,2
2017-10-09T18:40:03.217Z,0
2017-10-09T18:45:04.403Z,3
2017-10-09T18:50:03.261Z,2
2017-10-09T18:55:02.976Z,1
2017-10-09T19:00:05.064Z,2
2017-10-09T19:05:03.587Z,3
2017-10-09T19:10:04.734Z,3
2017-10-09T19:15:03.212Z,2
2017-10-09T19:20:02.841Z,2
2017-10-09T19:25:03.452Z,3
2017-10-09T19:30:02.914Z,2
2017-10-09T19:35:03.725Z,2
2017-10-09T19:40:03.526Z,2
2017-10-09T19:45:03.234Z,1
2017-10-09T19:50:02.632Z,1
2017-10-09T19:55:03.565Z,2
2017-10-09T20:00:03.689Z,1
2017-10-09T20:05:03.538Z,2
2017-10-09T20:10:03.322Z,2
2017-10-09T20:15:02.757Z,2
2017-10-09T20:20:03.379Z,2
2017-10-09T20:25:02.933Z,0
2017-10-09T20:30:03.692Z,2
2017-10-09T20:35:03.583Z,2
2017-10-09T20:40:03.001Z,3
2017-10-09T20:45:02.530Z,2
2017-10-09T20:50:03.244Z,1
2017-10-09T20:55:02.901Z,0
2017-10-09T21:00:03.770Z,0
2017-10-09T21:05:03.563Z,0
2017-10-09T21:10:03.322Z,0
2017-10-09T21:15:02.824Z,0
2017-10-09T21:20:03.506Z,0
2017-10-09T21:25:03.219Z,0
2017-10-09T21:30:02.616Z,0
2017-10-09T21:35:03.354Z,0
2017-10-09T21:40:02.964Z,0
2017-10-09T21:45:03.468Z,0
2017-10-09T21:50:02.955Z,1
2017-10-09T21:55:03.645Z,2
2017-10-09T22:00:03.223Z,1
2017-10-09T22:05:02.712Z,0
2017-10-09T22:10:03.431Z,3
2017-10-09T22:15:02.865Z,3
2017-10-09T22:20:03.398Z,6
2017-10-09T22:25:02.980Z,4
2017-10-09T22:30:02.817Z,5
2017-10-09T22:35:03.333Z,6
2017-10-09T22:40:02.777Z,4
2017-10-09T22:45:03.505Z,2
2017-10-09T22:50:03.061Z,3
2017-10-09T22:55:02.660Z,2
2017-10-09T23:00:03.996Z,3
2017-10-09T23:05:03.240Z,2
2017-10-09T23:10:02.680Z,3
2017-10-09T23:15:03.502Z,3
2017-10-09T23:20:03.048Z,2
2017-10-09T23:25:02.583Z,3
2017-10-09T23:30:03.320Z,2
2017-10-09T23:35:02.871Z,2
2017-10-09T23:40:03.418Z,1
2017-10-09T23:45:02.877Z,0
2017-10-09T23:50:03.576Z,0
2017-10-09T23:55:03.232Z,0
